Time;durP1;ratioP1;P1;durP2;ratioP2;P2;SDS_P1;SDS_P2;PMS_P1;PMS_P2;Temp;Humidity;BMP_temperature;BMP_pressure;BME280_temperature;BME280_humidity;BME280_pressure;Samples;Min_cycle;Max_cycle;Signal;HPM_P1;HPM_P2
2024/01/27 00:01:15;;;;;;;3.75;1.85;;;17.20;53.40;;;;;;5006268;28;47281;-61
2024/01/27 00:03:42;;;;;;;1.98;1.70;;;17.20;53.30;;;;;;5022436;28;45333;-61
2024/01/27 00:06:09;;;;;;;3.45;1.65;;;17.20;53.40;;;;;;5022487;28;45262;-61
2024/01/27 00:08:36;;;;;;;2.15;1.50;;;17.10;53.90;;;;;;5022403;28;45409;-60
2024/01/27 00:11:04;;;;;;;2.47;1.75;;;17.10;53.30;;;;;;5019456;28;46195;-61
2024/01/27 00:13:31;;;;;;;2.90;1.70;;;17.10;53.30;;;;;;5022131;28;45287;-61
2024/01/27 00:15:58;;;;;;;2.88;2.08;;;17.00;53.20;;;;;;5022236;28;45288;-61
2024/01/27 00:18:25;;;;;;;2.55;1.70;;;17.00;53.20;;;;;;5022394;28;45222;-61
2024/01/27 00:20:52;;;;;;;2.65;1.88;;;17.00;53.30;;;;;;5022001;28;46322;-60
2024/01/27 00:23:19;;;;;;;3.10;1.75;;;17.00;53.20;;;;;;5022060;28;45382;-62
2024/01/27 00:25:45;;;;;;;3.58;1.65;;;16.90;53.20;;;;;;5022238;28;45323;-62
2024/01/27 00:28:14;;;;;;;3.20;1.65;;;16.90;53.20;;;;;;5022122;28;45361;-61
2024/01/27 00:30:41;;;;;;;2.60;1.88;;;16.90;53.20;;;;;;5023553;28;47612;-61
2024/01/27 00:33:07;;;;;;;2.40;1.90;;;16.80;53.20;;;;;;5024927;28;45121;-61
2024/01/27 00:35:34;;;;;;;3.53;1.90;;;16.80;53.20;;;;;;5025020;28;45294;-61
2024/01/27 00:38:01;;;;;;;2.15;1.75;;;16.80;53.20;;;;;;5025229;28;45341;-63
2024/01/27 00:40:28;;;;;;;4.60;1.80;;;16.80;53.10;;;;;;5024855;28;45459;-63
2024/01/27 00:42:55;;;;;;;2.28;1.80;;;16.70;53.10;;;;;;5024646;28;45201;-62
2024/01/27 00:45:24;;;;;;;2.75;1.80;;;16.70;53.10;;;;;;5025006;27;45154;-63
2024/01/27 00:47:50;;;;;;;2.70;1.95;;;16.70;53.10;;;;;;5024829;28;45481;-63
2024/01/27 00:50:17;;;;;;;2.20;1.80;;;16.70;53.00;;;;;;5024861;28;46203;-63
2024/01/27 00:52:44;;;;;;;2.83;1.70;;;16.60;53.00;;;;;;5024654;28;45320;-63
2024/01/27 00:55:11;;;;;;;2.65;1.80;;;16.60;53.00;;;;;;5024776;28;45162;-63
2024/01/27 00:57:38;;;;;;;1.83;1.67;;;16.50;52.90;;;;;;5024902;28;45321;-63
2024/01/27 01:00:06;;;;;;;3.30;1.90;;;16.60;53.30;;;;;;5024657;27;45464;-62
2024/01/27 01:02:34;;;;;;;2.05;1.75;;;16.50;52.90;;;;;;5009977;28;45305;-61
2024/01/27 01:05:01;;;;;;;2.80;1.80;;;16.50;53.00;;;;;;5004897;28;45197;-64
2024/01/27 01:07:28;;;;;;;4.88;1.98;;;16.50;52.90;;;;;;5004976;27;45383;-62
2024/01/27 01:09:55;;;;;;;3.20;2.00;;;16.40;52.90;;;;;;5004548;28;46734;-63
2024/01/27 01:12:22;;;;;;;3.92;2.08;;;16.40;52.90;;;;;;5004601;28;45402;-63
2024/01/27 01:14:49;;;;;;;2.85;2.38;;;16.40;52.90;;;;;;5004640;28;45210;-62
2024/01/27 01:17:15;;;;;;;2.80;1.85;;;16.30;52.80;;;;;;5004734;27;45226;-63
2024/01/27 01:19:44;;;;;;;3.85;1.92;;;16.30;52.80;;;;;;5004523;28;46324;-63
2024/01/27 01:22:11;;;;;;;4.10;1.98;;;16.30;52.90;;;;;;5004630;27;45495;-63
2024/01/27 01:24:37;;;;;;;3.63;1.80;;;16.30;52.80;;;;;;5004771;28;45458;-63
2024/01/27 01:27:05;;;;;;;3.33;1.83;;;16.30;52.80;;;;;;5004710;28;45263;-62
2024/01/27 01:29:32;;;;;;;2.20;1.80;;;16.30;52.80;;;;;;5008296;27;45697;-62
2024/01/27 01:32:01;;;;;;;2.85;2.08;;;16.20;52.80;;;;;;5024183;28;45431;-63
2024/01/27 01:34:28;;;;;;;2.85;1.70;;;16.20;52.80;;;;;;5024488;27;45420;-63
2024/01/27 01:36:57;;;;;;;2.42;2.00;;;16.20;52.80;;;;;;5024523;27;45235;-63
2024/01/27 01:39:24;;;;;;;2.78;1.80;;;16.20;52.80;;;;;;5023909;27;45465;-62
2024/01/27 01:41:51;;;;;;;2.45;1.65;;;16.10;52.70;;;;;;5023663;28;45313;-61
2024/01/27 01:44:18;;;;;;;1.90;1.70;;;16.10;52.70;;;;;;5024253;28;45284;-62
2024/01/27 01:46:44;;;;;;;3.95;2.00;;;16.10;52.70;;;;;;5024634;28;45439;-62
2024/01/27 01:49:11;;;;;;;2.63;1.75;;;16.00;52.70;;;;;;5021320;28;45246;-61
2024/01/27 01:51:38;;;;;;;2.35;1.90;;;16.00;52.70;;;;;;5024015;28;45320;-61
2024/01/27 01:54:07;;;;;;;7.47;2.50;;;16.00;52.70;;;;;;5024239;28;45344;-62
2024/01/27 01:56:33;;;;;;;1.80;1.70;;;16.00;52.70;;;;;;5024289;28;45458;-61
2024/01/27 01:59:00;;;;;;;1.67;1.58;;;15.90;52.70;;;;;;5023864;28;45527;-61
2024/01/27 02:01:27;;;;;;;2.42;1.73;;;15.90;52.70;;;;;;5024064;28;45203;-61
2024/01/27 02:03:54;;;;;;;2.95;2.03;;;15.90;52.60;;;;;;5024098;28;45328;-62
2024/01/27 02:06:21;;;;;;;2.15;1.95;;;15.90;52.60;;;;;;5024143;28;45452;-62
2024/01/27 02:08:48;;;;;;;2.72;2.35;;;15.80;52.60;;;;;;5023424;28;46413;-61
2024/01/27 02:11:16;;;;;;;4.72;1.83;;;15.80;52.70;;;;;;5023597;28;45250;-63
2024/01/27 02:13:43;;;;;;;2.50;1.60;;;15.80;52.70;;;;;;5023855;28;45253;-61
2024/01/27 02:16:10;;;;;;;2.28;1.80;;;15.80;52.70;;;;;;5023987;28;45542;-62
2024/01/27 02:18:37;;;;;;;2.00;1.80;;;15.80;52.60;;;;;;5023547;28;46664;-61
2024/01/27 02:21:04;;;;;;;2.28;1.75;;;15.70;52.50;;;;;;5023838;28;45226;-61
2024/01/27 02:23:31;;;;;;;2.08;1.52;;;15.70;52.50;;;;;;5023754;28;45312;-62
2024/01/27 02:25:59;;;;;;;2.08;1.60;;;15.70;52.60;;;;;;5024025;28;45428;-62
2024/01/27 02:28:31;;;;;;;2.38;2.00;;;15.70;52.50;;;;;;5023475;28;46832;-62
2024/01/27 02:30:59;;;;;;;1.83;1.60;;;15.60;52.50;;;;;;5023363;28;45144;-61
2024/01/27 02:33:26;;;;;;;2.10;1.85;;;15.60;52.50;;;;;;5023525;28;45406;-62
2024/01/27 02:35:53;;;;;;;2.03;1.83;;;15.60;52.50;;;;;;5023756;28;45365;-62
2024/01/27 02:38:20;;;;;;;1.88;1.73;;;15.60;52.50;;;;;;5019309;28;47176;-61
2024/01/27 02:40:47;;;;;;;2.05;1.67;;;15.50;52.40;;;;;;5003599;28;45220;-61
2024/01/27 02:43:15;;;;;;;2.60;2.00;;;15.50;52.50;;;;;;5003606;28;45165;-62
2024/01/27 02:45:42;;;;;;;1.90;1.70;;;15.50;52.40;;;;;;5003892;28;45548;-62
2024/01/27 02:48:08;;;;;;;2.38;1.73;;;15.50;52.50;;;;;;5003467;28;46513;-62
2024/01/27 02:50:35;;;;;;;3.00;2.10;;;15.40;52.50;;;;;;5003390;28;45231;-61
2024/01/27 02:53:02;;;;;;;2.28;1.80;;;15.40;52.50;;;;;;5002264;28;45192;-62
2024/01/27 02:55:29;;;;;;;2.42;1.90;;;15.40;52.50;;;;;;5003607;28;45386;-62
2024/01/27 02:57:56;;;;;;;2.00;1.80;;;15.30;52.40;;;;;;5003123;28;48561;-61
2024/01/27 03:00:25;;;;;;;3.05;2.00;;;15.30;52.50;;;;;;5003257;28;45391;-62
2024/01/27 03:02:52;;;;;;;2.90;2.10;;;15.30;52.50;;;;;;5003411;28;45142;-61
2024/01/27 03:05:19;;;;;;;2.65;1.85;;;15.30;52.50;;;;;;5003763;28;45197;-61
2024/01/27 03:07:46;;;;;;;2.05;1.80;;;15.30;52.40;;;;;;5003191;27;45620;-62
2024/01/27 03:10:13;;;;;;;1.85;1.65;;;15.20;52.40;;;;;;5003291;28;45367;-62
2024/01/27 03:12:40;;;;;;;2.08;1.70;;;15.20;52.30;;;;;;5003128;28;45196;-62
2024/01/27 03:15:07;;;;;;;3.38;1.63;;;15.20;52.40;;;;;;5003936;27;45466;-62
2024/01/27 03:17:36;;;;;;;2.17;1.77;;;15.20;52.40;;;;;;5022785;27;45374;-63
2024/01/27 03:20:03;;;;;;;2.38;1.90;;;15.20;52.30;;;;;;5023066;28;45344;-62
2024/01/27 03:22:30;;;;;;;2.15;1.70;;;15.10;52.30;;;;;;5023150;28;45221;-62
2024/01/27 03:24:57;;;;;;;1.77;1.63;;;15.10;52.20;;;;;;5023141;28;45156;-62
2024/01/27 03:27:24;;;;;;;8.25;1.92;;;15.10;52.20;;;;;;5022642;28;46380;-62
2024/01/27 03:29:50;;;;;;;1.80;1.70;;;15.10;52.20;;;;;;5022811;28;45251;-62
2024/01/27 03:32:17;;;;;;;2.10;1.60;;;15.10;52.20;;;;;;5022804;28;45388;-63
2024/01/27 03:34:46;;;;;;;1.83;1.58;;;15.00;52.30;;;;;;5023112;28;45242;-62
2024/01/27 03:37:13;;;;;;;2.22;1.70;;;15.00;52.20;;;;;;5022604;28;45311;-63
2024/01/27 03:39:42;;;;;;;2.22;2.00;;;15.00;52.20;;;;;;5022576;28;45438;-62
2024/01/27 03:42:09;;;;;;;2.78;1.77;;;15.00;52.20;;;;;;5022963;28;45468;-63
2024/01/27 03:44:36;;;;;;;2.63;1.60;;;15.00;52.20;;;;;;5022955;28;45458;-62
2024/01/27 03:47:03;;;;;;;2.03;1.83;;;14.90;52.10;;;;;;5022541;28;45261;-61
2024/01/27 03:49:30;;;;;;;3.25;1.92;;;14.90;52.10;;;;;;5022475;28;45462;-62
2024/01/27 03:51:58;;;;;;;3.90;1.70;;;14.90;52.10;;;;;;5022519;28;45433;-62
2024/01/27 03:54:25;;;;;;;2.60;1.90;;;14.90;52.10;;;;;;5022797;28;45308;-62
2024/01/27 03:56:52;;;;;;;1.70;1.50;;;14.90;52.10;;;;;;5022380;28;45200;-62
2024/01/27 03:59:19;;;;;;;2.60;2.10;;;14.80;52.00;;;;;;5022559;28;45280;-62
2024/01/27 04:01:46;;;;;;;2.60;2.05;;;14.80;52.00;;;;;;5022558;28;45292;-61
2024/01/27 04:04:13;;;;;;;3.03;2.25;;;14.80;52.00;;;;;;5022554;28;45526;-62
2024/01/27 04:06:40;;;;;;;3.03;2.10;;;14.80;52.10;;;;;;5019640;28;45357;-61
2024/01/27 04:09:08;;;;;;;3.15;1.90;;;14.70;52.00;;;;;;5022153;28;45240;-61
2024/01/27 04:11:35;;;;;;;2.47;1.92;;;14.70;52.00;;;;;;5022138;28;45334;-61
2024/01/27 04:14:04;;;;;;;2.80;2.20;;;14.80;52.50;;;;;;5022374;28;45373;-61
2024/01/27 04:16:31;;;;;;;3.30;2.30;;;14.80;52.40;;;;;;5022126;28;45326;-62
2024/01/27 04:18:58;;;;;;;3.00;2.30;;;14.90;51.60;;;;;;5022106;28;45255;-63
2024/01/27 04:21:25;;;;;;;2.78;2.45;;;15.00;51.50;;;;;;5022205;28;45427;-63
2024/01/27 04:23:52;;;;;;;2.97;2.22;;;15.10;51.30;;;;;;5022300;28;45253;-61
2024/01/27 04:26:20;;;;;;;2.67;2.28;;;15.20;51.10;;;;;;5021933;28;45324;-61
2024/01/27 04:28:52;;;;;;;2.65;2.30;;;15.20;51.40;;;;;;5022175;28;45405;-63
2024/01/27 04:31:19;;;;;;;3.40;2.60;;;15.30;50.60;;;;;;5022020;28;45256;-61
2024/01/27 04:33:46;;;;;;;3.38;2.03;;;15.40;50.30;;;;;;5022009;28;45284;-61
2024/01/27 04:36:13;;;;;;;3.10;2.25;;;15.50;50.00;;;;;;5021743;28;45542;-61
2024/01/27 04:38:40;;;;;;;3.22;2.50;;;15.60;49.80;;;;;;5021775;28;45142;-61
2024/01/27 04:41:06;;;;;;;3.00;1.77;;;15.80;49.60;;;;;;5021891;28;45399;-62
2024/01/27 04:43:35;;;;;;;4.07;2.42;;;15.90;49.30;;;;;;5022029;28;45246;-61
2024/01/27 04:46:02;;;;;;;3.08;2.03;;;16.00;49.00;;;;;;5021534;28;46368;-61
2024/01/27 04:48:28;;;;;;;2.75;2.05;;;16.10;48.70;;;;;;5021635;28;45175;-61
2024/01/27 04:50:56;;;;;;;4.28;2.38;;;16.20;48.50;;;;;;5021775;28;45130;-60
2024/01/27 04:53:23;;;;;;;2.88;2.13;;;16.30;48.30;;;;;;5021632;27;45548;-61
2024/01/27 04:55:50;;;;;;;2.28;1.90;;;16.30;48.10;;;;;;5021522;28;46427;-62
2024/01/27 04:58:16;;;;;;;2.58;1.83;;;16.40;47.90;;;;;;5021523;28;45236;-61
2024/01/27 05:00:45;;;;;;;2.05;1.80;;;16.50;47.70;;;;;;5019085;28;45239;-62
2024/01/27 05:03:13;;;;;;;3.33;1.95;;;16.60;47.60;;;;;;5021674;28;45391;-61
2024/01/27 05:05:42;;;;;;;2.95;2.08;;;16.60;47.40;;;;;;5021220;28;46995;-61
2024/01/27 05:08:09;;;;;;;2.95;2.25;;;16.70;47.80;;;;;;5021026;28;45312;-61
2024/01/27 05:10:36;;;;;;;3.45;2.50;;;16.80;47.00;;;;;;5021495;28;45363;-61
2024/01/27 05:13:03;;;;;;;2.63;2.13;;;16.80;46.90;;;;;;5021554;28;45328;-60
2024/01/27 05:15:30;;;;;;;3.97;2.25;;;16.90;46.80;;;;;;5021561;28;46361;-61
2024/01/27 05:17:58;;;;;;;4.72;2.40;;;16.90;46.70;;;;;;5024330;28;45272;-63
2024/01/27 05:20:25;;;;;;;2.42;2.13;;;17.00;46.60;;;;;;5024571;28;45327;-63
2024/01/27 05:22:52;;;;;;;3.53;2.00;;;17.00;46.40;;;;;;5024616;28;45382;-63
2024/01/27 05:25:19;;;;;;;2.38;1.83;;;17.10;46.30;;;;;;5024259;28;47551;-63
2024/01/27 05:27:45;;;;;;;2.10;1.75;;;17.10;46.20;;;;;;5024465;28;45417;-63
2024/01/27 05:30:13;;;;;;;3.28;2.00;;;17.10;46.00;;;;;;5024358;28;45197;-62
2024/01/27 05:32:40;;;;;;;2.05;1.83;;;17.20;46.00;;;;;;5024409;28;45176;-62
2024/01/27 05:35:10;;;;;;;2.30;2.00;;;17.20;45.80;;;;;;5024124;28;46707;-62
2024/01/27 05:37:38;;;;;;;2.60;1.80;;;17.30;45.70;;;;;;5024254;28;45189;-62
2024/01/27 05:40:07;;;;;;;3.20;1.85;;;17.30;45.50;;;;;;5024375;27;45322;-62
2024/01/27 05:42:34;;;;;;;3.80;2.15;;;17.30;45.50;;;;;;5024266;28;45288;-63
2024/01/27 05:45:00;;;;;;;3.78;2.40;;;17.40;45.40;;;;;;5023949;28;45363;-63
2024/01/27 05:47:27;;;;;;;2.10;1.70;;;17.40;45.30;;;;;;5024010;28;45224;-63
2024/01/27 05:49:54;;;;;;;2.10;1.80;;;17.40;45.20;;;;;;5024163;28;45173;-63
2024/01/27 05:52:22;;;;;;;2.20;1.55;;;17.40;45.20;;;;;;5024166;28;45126;-62
2024/01/27 05:54:49;;;;;;;2.22;1.85;;;17.50;45.10;;;;;;5023828;28;46992;-63
2024/01/27 05:57:16;;;;;;;2.75;2.10;;;17.50;45.10;;;;;;5023784;28;45314;-63
2024/01/27 05:59:43;;;;;;;4.72;2.38;;;17.50;45.00;;;;;;5021598;28;45175;-64
2024/01/27 06:02:10;;;;;;;6.18;2.50;;;17.50;45.00;;;;;;5024345;28;45146;-63
2024/01/27 06:04:36;;;;;;;5.70;2.72;;;17.50;44.90;;;;;;5023871;28;45374;-63
2024/01/27 06:07:04;;;;;;;5.45;2.67;;;17.50;44.80;;;;;;5023803;28;45271;-63
2024/01/27 06:09:32;;;;;;;3.85;2.55;;;17.60;44.80;;;;;;5023506;28;45363;-64
2024/01/27 06:12:00;;;;;;;6.35;2.80;;;17.60;45.40;;;;;;5024115;28;45246;-62
2024/01/27 06:14:27;;;;;;;3.70;2.20;;;17.60;44.70;;;;;;5021158;28;45361;-63
2024/01/27 06:16:54;;;;;;;4.93;2.95;;;17.60;44.60;;;;;;5023639;28;45538;-62
2024/01/27 06:19:21;;;;;;;4.68;2.50;;;17.60;44.50;;;;;;5023889;28;45285;-63
2024/01/27 06:21:47;;;;;;;3.67;2.30;;;17.60;44.40;;;;;;5023856;28;45400;-65
2024/01/27 06:24:14;;;;;;;5.57;2.63;;;17.70;44.50;;;;;;5023695;28;45165;-65
2024/01/27 06:26:43;;;;;;;2.53;2.05;;;17.70;44.40;;;;;;5023901;28;45187;-63
2024/01/27 06:29:10;;;;;;;3.97;2.30;;;17.70;44.30;;;;;;5023734;28;45365;-63
2024/01/27 06:31:36;;;;;;;4.75;2.63;;;17.70;44.20;;;;;;5023942;28;45295;-63
2024/01/27 06:34:03;;;;;;;4.30;2.15;;;17.70;44.20;;;;;;5023337;28;46469;-66
2024/01/27 06:36:30;;;;;;;4.45;2.42;;;17.70;44.10;;;;;;5023658;27;45231;-63
2024/01/27 06:38:57;;;;;;;3.50;2.10;;;17.80;44.10;;;;;;5023757;28;45312;-63
2024/01/27 06:41:24;;;;;;;3.35;2.00;;;17.80;44.10;;;;;;5023813;28;45458;-63
2024/01/27 06:43:52;;;;;;;3.55;2.15;;;17.80;44.00;;;;;;5023612;27;45328;-63
2024/01/27 06:46:19;;;;;;;3.45;2.08;;;17.80;44.00;;;;;;5023803;28;45267;-63
2024/01/27 06:48:46;;;;;;;3.20;1.95;;;17.80;43.80;;;;;;5023665;28;45249;-64
2024/01/27 06:51:13;;;;;;;3.78;1.90;;;17.80;43.80;;;;;;5023746;28;45435;-63
2024/01/27 06:53:39;;;;;;;3.30;2.08;;;17.80;43.70;;;;;;5004935;28;45381;-64
2024/01/27 06:56:07;;;;;;;2.33;1.92;;;17.80;43.70;;;;;;5003922;28;45326;-63
2024/01/27 06:58:34;;;;;;;3.88;1.88;;;17.90;43.60;;;;;;5003716;28;45238;-63
2024/01/27 07:01:03;;;;;;;2.42;1.75;;;17.90;43.60;;;;;;5003915;28;45305;-62
2024/01/27 07:03:30;;;;;;;2.30;1.90;;;17.90;43.60;;;;;;5002997;28;45314;-62
2024/01/27 07:05:56;;;;;;;2.60;1.92;;;17.90;43.60;;;;;;5003382;28;45298;-61
2024/01/27 07:08:23;;;;;;;2.55;1.65;;;17.90;43.50;;;;;;5003200;28;45272;-61
2024/01/27 07:10:50;;;;;;;2.58;1.73;;;17.90;43.40;;;;;;5003655;28;45146;-61
2024/01/27 07:13:17;;;;;;;3.60;1.95;;;17.90;43.40;;;;;;5003047;28;45345;-63
2024/01/27 07:15:44;;;;;;;1.60;1.50;;;17.90;43.30;;;;;;5003095;28;45378;-63
2024/01/27 07:18:12;;;;;;;2.45;1.80;;;17.90;43.30;;;;;;5003415;27;45188;-63
2024/01/27 07:20:39;;;;;;;3.35;1.80;;;17.90;43.20;;;;;;5003299;28;45467;-63
2024/01/27 07:23:06;;;;;;;3.38;2.42;;;17.90;43.20;;;;;;5002799;27;46425;-63
2024/01/27 07:25:33;;;;;;;3.30;1.55;;;17.90;43.20;;;;;;5003073;28;46068;-63
2024/01/27 07:28:00;;;;;;;2.05;1.80;;;17.90;43.20;;;;;;5002860;28;45416;-62
2024/01/27 07:30:27;;;;;;;3.35;1.90;;;17.90;43.20;;;;;;5014341;28;45447;-61
2024/01/27 07:32:54;;;;;;;1.90;1.65;;;17.90;43.10;;;;;;5021046;28;46486;-63
2024/01/27 07:35:22;;;;;;;3.70;2.10;;;17.90;43.10;;;;;;5013849;28;45227;-62
2024/01/27 07:37:49;;;;;;;4.22;2.00;;;17.90;43.00;;;;;;5002944;28;45327;-61
2024/01/27 07:40:16;;;;;;;3.97;1.60;;;17.90;43.00;;;;;;5002732;28;45297;-62
2024/01/27 07:42:43;;;;;;;4.53;1.60;;;17.90;43.50;;;;;;5004196;28;46937;-62
2024/01/27 07:45:10;;;;;;;2.53;1.67;;;17.90;42.90;;;;;;5022834;27;45464;-61
2024/01/27 07:47:37;;;;;;;3.30;1.90;;;17.90;42.90;;;;;;5002827;28;45270;-61
2024/01/27 07:50:04;;;;;;;2.72;1.67;;;18.00;43.00;;;;;;5012674;28;45364;-62
2024/01/27 07:52:32;;;;;;;3.63;1.90;;;17.90;42.90;;;;;;5018642;28;45349;-61
2024/01/27 07:54:59;;;;;;;3.42;2.08;;;17.90;42.80;;;;;;5022036;28;45417;-61
2024/01/27 07:57:26;;;;;;;2.10;1.80;;;18.00;42.70;;;;;;5065370;27;45208;-60
2024/01/27 07:59:53;;;;;;;3.00;1.63;;;18.00;42.70;;;;;;5022630;27;45273;-61
2024/01/27 08:02:19;;;;;;;1.98;1.55;;;18.00;42.70;;;;;;5015567;28;45358;-60
2024/01/27 08:04:46;;;;;;;2.58;1.58;;;18.00;42.20;;;;;;5039056;27;45279;-64
2024/01/27 08:07:16;;;;;;;2.20;1.50;;;18.00;42.50;;;;;;5073021;27;45305;-62
2024/01/27 08:09:44;;;;;;;8.40;1.85;;;18.10;42.60;;;;;;5026166;27;45631;-62
2024/01/27 08:12:11;;;;;;;2.97;1.65;;;18.10;42.80;;;;;;5022240;28;46577;-61
2024/01/27 08:14:39;;;;;;;3.08;1.52;;;18.10;41.80;;;;;;5022186;28;45253;-61
2024/01/27 08:17:06;;;;;;;7.03;1.50;;;18.10;42.30;;;;;;5022503;27;45227;-64
2024/01/27 08:19:33;;;;;;;4.47;1.63;;;18.10;42.40;;;;;;5022418;28;45129;-63
2024/01/27 08:21:59;;;;;;;5.05;2.10;;;18.10;42.40;;;;;;5022170;27;45828;-63
2024/01/27 08:24:26;;;;;;;9.32;2.13;;;18.10;42.10;;;;;;5022060;28;45385;-63
2024/01/27 08:26:54;;;;;;;17.50;2.08;;;18.10;42.30;;;;;;5022196;28;45247;-62
2024/01/27 08:29:21;;;;;;;1.58;1.27;;;18.10;42.50;;;;;;5020345;28;45238;-63
2024/01/27 08:31:48;;;;;;;2.65;1.55;;;18.00;42.50;;;;;;5002257;28;45376;-63
2024/01/27 08:34:16;;;;;;;3.88;1.75;;;18.00;43.00;;;;;;5002159;28;45433;-65
2024/01/27 08:36:43;;;;;;;2.38;1.40;;;18.00;42.40;;;;;;5002074;28;45318;-62
2024/01/27 08:39:12;;;;;;;3.17;1.65;;;18.00;43.20;;;;;;5002508;27;45410;-62
2024/01/27 08:41:38;;;;;;;4.35;1.60;;;18.00;42.30;;;;;;5001711;27;46662;-60
2024/01/27 08:44:07;;;;;;;4.22;1.73;;;18.10;42.30;;;;;;5001984;27;45323;-61
2024/01/27 08:46:34;;;;;;;4.97;2.20;;;18.10;42.10;;;;;;5001931;28;45222;-62
2024/01/27 08:49:00;;;;;;;5.18;2.15;;;18.20;42.60;;;;;;5001957;28;45431;-62
2024/01/27 08:51:27;;;;;;;5.70;1.95;;;18.30;42.40;;;;;;5003245;28;45236;-62
2024/01/27 08:53:54;;;;;;;9.32;1.80;;;18.30;42.40;;;;;;5004622;28;45263;-63
2024/01/27 08:56:21;;;;;;;2.70;1.67;;;18.30;42.90;;;;;;5005019;28;45367;-62
2024/01/27 08:58:48;;;;;;;3.35;1.83;;;18.30;42.80;;;;;;5005050;28;45404;-62
2024/01/27 09:01:16;;;;;;;5.88;1.75;;;18.40;43.00;;;;;;5002951;28;46587;-60
2024/01/27 09:03:43;;;;;;;4.60;1.60;;;18.30;43.20;;;;;;5007177;28;45328;-60
2024/01/27 09:06:10;;;;;;;7.40;2.00;;;18.40;43.30;;;;;;5009804;28;45358;-60
2024/01/27 09:08:37;;;;;;;4.80;1.50;;;18.40;43.50;;;;;;5024230;28;45325;-59
2024/01/27 09:11:04;;;;;;;6.15;1.92;;;18.50;43.60;;;;;;5018256;28;45671;-62
2024/01/27 09:13:31;;;;;;;2.72;1.67;;;18.40;43.10;;;;;;5004261;27;45499;-60
2024/01/27 09:15:58;;;;;;;7.82;1.88;;;18.40;43.70;;;;;;5013780;27;45351;-62
2024/01/27 09:18:27;;;;;;;4.63;1.77;;;18.50;43.70;;;;;;5024640;28;45336;-59
2024/01/27 09:20:54;;;;;;;3.22;1.80;;;18.50;44.10;;;;;;5024488;28;45346;-62
2024/01/27 09:23:20;;;;;;;6.13;1.55;;;18.50;43.80;;;;;;5024518;27;45149;-66
2024/01/27 09:25:47;;;;;;;3.15;1.63;;;18.70;44.10;;;;;;5023871;27;45155;-60
2024/01/27 09:28:15;;;;;;;3.10;1.65;;;18.70;44.30;;;;;;5017500;28;45529;-65
2024/01/27 09:30:43;;;;;;;4.05;1.60;;;18.80;44.00;;;;;;5002630;28;45463;-61
2024/01/27 09:33:10;;;;;;;4.55;1.70;;;18.80;43.90;;;;;;5006778;28;45693;-59
2024/01/27 09:35:38;;;;;;;3.05;1.58;;;18.90;44.30;;;;;;5000462;28;45752;-58
2024/01/27 09:38:07;;;;;;;6.25;1.75;;;18.90;44.50;;;;;;5007492;27;45455;-61
2024/01/27 09:40:34;;;;;;;2.80;1.48;;;18.90;44.30;;;;;;5009120;27;48226;-63
2024/01/27 09:43:01;;;;;;;3.80;1.50;;;18.90;44.70;;;;;;5005675;27;45420;-62
2024/01/27 09:45:28;;;;;;;4.47;1.80;;;18.90;44.80;;;;;;5001606;27;45468;-65
2024/01/27 09:47:55;;;;;;;2.67;1.48;;;19.10;44.80;;;;;;4998257;28;45439;-65
2024/01/27 09:50:22;;;;;;;3.67;1.45;;;19.20;44.80;;;;;;5002680;27;45828;-63
2024/01/27 09:52:50;;;;;;;4.38;1.40;;;19.30;45.40;;;;;;5005958;27;45438;-64
2024/01/27 09:55:17;;;;;;;5.18;1.67;;;19.30;44.60;;;;;;5001741;28;45346;-62
2024/01/27 09:57:44;;;;;;;5.97;1.80;;;19.30;44.40;;;;;;5004013;28;45531;-63
2024/01/27 10:00:12;;;;;;;4.57;1.35;;;19.30;44.50;;;;;;5002517;28;46301;-64
2024/01/27 10:02:39;;;;;;;5.07;1.30;;;19.40;44.60;;;;;;5005698;28;45484;-65
2024/01/27 10:05:08;;;;;;;2.75;1.58;;;19.50;44.50;;;;;;5002977;28;45470;-65
2024/01/27 10:07:33;;;;;;;4.32;1.70;;;19.50;44.50;;;;;;5002228;28;45499;-64
2024/01/27 10:10:02;;;;;;;5.10;1.75;;;19.70;44.50;;;;;;5001407;28;45649;-65
2024/01/27 10:12:29;;;;;;;3.30;1.50;;;19.80;44.50;;;;;;5002826;28;45656;-61
2024/01/27 10:14:56;;;;;;;3.95;2.10;;;19.90;44.50;;;;;;5003059;27;45524;-63
2024/01/27 10:17:23;;;;;;;9.52;2.35;;;19.90;44.60;;;;;;5000962;28;45425;-62
2024/01/27 10:20:01;;;;;;;4.82;1.90;;;19.90;44.60;;;;;;4998096;27;45531;-61
2024/01/27 10:22:28;;;;;;;6.47;1.98;;;19.90;44.60;;;;;;5003735;28;45448;-63
2024/01/27 10:24:55;;;;;;;8.77;1.95;;;19.90;43.70;;;;;;5008703;28;46460;-65
2024/01/27 10:27:24;;;;;;;8.98;1.95;;;19.90;44.10;;;;;;4998949;28;45408;-61
2024/01/27 10:29:55;;;;;;;5.20;1.70;;;19.80;44.00;;;;;;5002018;28;46641;-62
2024/01/27 10:32:23;;;;;;;3.53;1.67;;;19.80;43.50;;;;;;5000448;28;45466;-62
2024/01/27 10:34:51;;;;;;;5.70;1.40;;;19.70;43.30;;;;;;5005910;28;46206;-60
2024/01/27 10:37:25;;;;;;;6.28;1.70;;;19.70;43.20;;;;;;4998880;28;46502;-60
2024/01/27 10:40:01;;;;;;;7.60;1.63;;;19.70;43.40;;;;;;5002388;28;46666;-61
2024/01/27 10:42:29;;;;;;;7.75;1.52;;;19.70;43.60;;;;;;4999762;28;45487;-64
2024/01/27 10:44:57;;;;;;;5.80;1.70;;;19.70;43.80;;;;;;5005644;28;45562;-62
2024/01/27 10:47:24;;;;;;;4.55;1.48;;;19.80;44.10;;;;;;5002542;27;45473;-61
2024/01/27 10:49:51;;;;;;;5.15;1.67;;;19.80;44.10;;;;;;4999637;28;45520;-63
2024/01/27 10:52:18;;;;;;;9.95;1.40;;;19.90;43.90;;;;;;5003609;27;45545;-63
2024/01/27 10:54:45;;;;;;;9.80;2.10;;;20.00;44.90;;;;;;4999228;28;45718;-61
2024/01/27 10:57:12;;;;;;;6.53;2.67;;;20.00;44.30;;;;;;5004572;28;45562;-61
2024/01/27 10:59:40;;;;;;;25.02;15.30;;;20.10;44.20;;;;;;4999686;28;47556;-63
2024/01/27 11:02:08;;;;;;;10.48;7.85;;;20.20;44.00;;;;;;5011151;28;45411;-63
2024/01/27 11:04:36;;;;;;;6.72;4.60;;;20.20;43.90;;;;;;5014326;28;45414;-61
2024/01/27 11:07:03;;;;;;;7.15;5.13;;;20.10;44.10;;;;;;5014564;28;45172;-61
2024/01/27 11:09:30;;;;;;;6.45;4.10;;;20.10;43.60;;;;;;5018523;28;46605;-63
2024/01/27 11:11:57;;;;;;;9.35;4.45;;;20.10;43.50;;;;;;5007870;28;45480;-61
2024/01/27 11:14:24;;;;;;;15.30;10.40;;;20.10;44.20;;;;;;5014484;28;45379;-61
2024/01/27 11:16:56;;;;;;;19.10;6.22;;;20.10;44.10;;;;;;5008383;28;45343;-61
2024/01/27 11:19:23;;;;;;;12.98;4.55;;;20.20;44.10;;;;;;5013057;27;45427;-60
2024/01/27 11:22:00;;;;;;;7.53;5.03;;;20.20;43.90;;;;;;5008600;28;45300;-60
2024/01/27 11:24:27;;;;;;;7.88;4.32;;;20.20;44.20;;;;;;5011728;28;45445;-60
2024/01/27 11:27:01;;;;;;;6.60;3.92;;;20.30;44.20;;;;;;5015092;28;45186;-60
2024/01/27 11:29:29;;;;;;;8.43;3.80;;;20.30;44.00;;;;;;5015718;28;46389;-60
2024/01/27 11:31:57;;;;;;;7.90;3.92;;;20.30;44.80;;;;;;5013126;27;45560;-59
2024/01/27 11:34:24;;;;;;;16.33;4.85;;;20.40;44.40;;;;;;5019918;27;45330;-63
2024/01/27 11:36:51;;;;;;;9.95;6.90;;;20.40;44.10;;;;;;5019896;28;45373;-62
2024/01/27 11:39:25;;;;;;;5.10;4.25;;;20.40;44.70;;;;;;5017035;27;45198;-64
2024/01/27 11:41:51;;;;;;;12.25;4.15;;;20.40;44.20;;;;;;5010463;28;45273;-62
2024/01/27 11:44:19;;;;;;;21.90;6.25;;;20.40;44.40;;;;;;5015825;28;45193;-63
2024/01/27 11:46:46;;;;;;;35.28;12.27;;;20.40;44.20;;;;;;5021922;27;45601;-63
2024/01/27 11:49:15;;;;;;;14.13;6.85;;;20.40;43.50;;;;;;5014676;28;47790;-65
2024/01/27 11:51:43;;;;;;;13.85;5.55;;;20.50;42.50;;;;;;5009275;27;45303;-66
2024/01/27 11:54:09;;;;;;;11.73;3.80;;;20.60;42.30;;;;;;5008260;28;45292;-66
2024/01/27 11:56:36;;;;;;;5.25;3.67;;;20.60;40.80;;;;;;5005869;28;45409;-66
2024/01/27 11:59:04;;;;;;;9.48;3.22;;;20.70;40.90;;;;;;5005894;28;47848;-65
2024/01/27 12:01:30;;;;;;;4.68;2.10;;;20.80;41.00;;;;;;5012261;28;45204;-64
2024/01/27 12:03:57;;;;;;;4.13;2.03;;;20.80;39.90;;;;;;5003669;28;45200;-65
2024/01/27 12:06:25;;;;;;;2.10;1.90;;;20.90;39.10;;;;;;5016888;28;45305;-65
2024/01/27 12:08:55;;;;;;;3.92;2.08;;;20.90;38.40;;;;;;5015380;28;45525;-65
2024/01/27 12:11:22;;;;;;;6.15;2.25;;;20.90;38.20;;;;;;5022299;27;45460;-65
2024/01/27 12:13:49;;;;;;;5.18;2.00;;;21.00;38.80;;;;;;5015052;28;45341;-65
2024/01/27 12:16:16;;;;;;;3.45;2.00;;;21.10;39.00;;;;;;5029557;27;45411;-66
2024/01/27 12:18:43;;;;;;;2.22;1.77;;;21.20;38.90;;;;;;5003629;28;45683;-65
2024/01/27 12:21:10;;;;;;;4.57;2.15;;;21.30;39.10;;;;;;5017948;27;45285;-65
2024/01/27 12:23:48;;;;;;;3.40;2.15;;;21.40;39.00;;;;;;5014839;27;45310;-64
2024/01/27 12:26:15;;;;;;;4.60;1.70;;;21.50;39.00;;;;;;5019459;27;45426;-65
2024/01/27 12:28:42;;;;;;;4.18;1.90;;;21.50;38.90;;;;;;5013310;28;45440;-65
2024/01/27 12:31:09;;;;;;;5.55;2.13;;;21.60;38.90;;;;;;5011593;27;45411;-65
2024/01/27 12:33:36;;;;;;;3.33;1.73;;;21.70;39.00;;;;;;5012805;28;45378;-66
2024/01/27 12:36:03;;;;;;;3.25;1.58;;;21.80;39.00;;;;;;5005436;28;45188;-65
2024/01/27 12:38:30;;;;;;;3.40;1.63;;;21.80;38.90;;;;;;5003540;28;45164;-65
2024/01/27 12:40:58;;;;;;;4.00;2.00;;;21.90;38.90;;;;;;5021011;28;45426;-65
2024/01/27 12:43:25;;;;;;;5.07;2.13;;;21.90;38.70;;;;;;5025400;27;45329;-65
2024/01/27 12:45:52;;;;;;;3.50;2.10;;;21.90;38.70;;;;;;5005491;28;45218;-65